sensor_id;sensor_type;location;lat;lon;timestamp;temperature;humidity
5930;DHT22;2990;48.746;9.236;2022-10-17T00:01:08;14.80;1.00
5930;DHT22;2990;48.746;9.236;2022-10-17T00:03:35;14.70;1.00
5930;DHT22;2990;48.746;9.236;2022-10-17T00:06:07;14.80;1.00
5930;DHT22;2990;48.746;9.236;2022-10-17T00:08:34;14.80;1.00
5930;DHT22;2990;48.746;9.236;2022-10-17T00:11:04;14.80;1.00
5930;DHT22;2990;48.746;9.236;2022-10-17T00:13:30;14.80;1.00
5930;DHT22;2990;48.746;9.236;2022-10-17T00:15:56;14.70;1.00
5930;DHT22;2990;48.746;9.236;2022-10-17T00:18:22;14.70;1.00
5930;DHT22;2990;48.746;9.236;2022-10-17T00:20:48;14.70;1.00
5930;DHT22;2990;48.746;9.236;2022-10-17T00:23:14;14.60;1.00
5930;DHT22;2990;48.746;9.236;2022-10-17T00:25:39;14.70;1.00
5930;DHT22;2990;48.746;9.236;2022-10-17T00:28:08;14.70;1.00
5930;DHT22;2990;48.746;9.236;2022-10-17T00:30:33;14.50;1.00
5930;DHT22;2990;48.746;9.236;2022-10-17T00:32:59;14.60;1.00
5930;DHT22;2990;48.746;9.236;2022-10-17T00:35:25;14.70;1.00
5930;DHT22;2990;48.746;9.236;2022-10-17T00:37:50;14.70;1.00
5930;DHT22;2990;48.746;9.236;2022-10-17T00:40:16;14.60;1.00
5930;DHT22;2990;48.746;9.236;2022-10-17T00:42:41;14.70;1.00
5930;DHT22;2990;48.746;9.236;2022-10-17T00:45:24;14.70;1.00
5930;DHT22;2990;48.746;9.236;2022-10-17T00:47:54;14.70;1.00
5930;DHT22;2990;48.746;9.236;2022-10-17T00:50:23;14.60;1.00
5930;DHT22;2990;48.746;9.236;2022-10-17T00:52:49;14.60;1.00
5930;DHT22;2990;48.746;9.236;2022-10-17T00:55:19;14.60;1.00
5930;DHT22;2990;48.746;9.236;2022-10-17T00:57:46;14.60;1.00
5930;DHT22;2990;48.746;9.236;2022-10-17T01:00:13;14.50;1.00
5930;DHT22;2990;48.746;9.236;2022-10-17T01:02:39;14.50;1.00
5930;DHT22;2990;48.746;9.236;2022-10-17T01:05:05;14.40;1.00
5930;DHT22;2990;48.746;9.236;2022-10-17T01:07:32;14.40;1.00
5930;DHT22;2990;48.746;9.236;2022-10-17T01:09:57;14.30;1.00
5930;DHT22;2990;48.746;9.236;2022-10-17T01:12:37;14.30;1.00
5930;DHT22;2990;48.746;9.236;2022-10-17T01:23:34;14.10;1.00
5930;DHT22;2990;48.746;9.236;2022-10-17T01:29:11;14.10;1.00
5930;DHT22;2990;48.746;9.236;2022-10-17T01:31:45;14.10;1.00
5930;DHT22;2990;48.746;9.236;2022-10-17T01:36:39;14.20;1.00
5930;DHT22;2990;48.746;9.236;2022-10-17T01:42:00;14.20;1.00
5930;DHT22;2990;48.746;9.236;2022-10-17T01:44:43;14.30;1.00
5930;DHT22;2990;48.746;9.236;2022-10-17T01:47:16;14.30;1.00
5930;DHT22;2990;48.746;9.236;2022-10-17T01:49:44;14.30;1.00
5930;DHT22;2990;48.746;9.236;2022-10-17T01:52:14;14.30;1.00
5930;DHT22;2990;48.746;9.236;2022-10-17T01:54:45;14.30;1.00
5930;DHT22;2990;48.746;9.236;2022-10-17T01:59:48;14.30;1.00
5930;DHT22;2990;48.746;9.236;2022-10-17T02:02:16;14.30;1.00
5930;DHT22;2990;48.746;9.236;2022-10-17T02:04:44;14.30;1.00
5930;DHT22;2990;48.746;9.236;2022-10-17T02:07:12;14.40;1.00
5930;DHT22;2990;48.746;9.236;2022-10-17T02:09:38;14.20;1.00
5930;DHT22;2990;48.746;9.236;2022-10-17T02:12:25;14.20;1.00
5930;DHT22;2990;48.746;9.236;2022-10-17T02:20:57;14.10;1.00
5930;DHT22;2990;48.746;9.236;2022-10-17T02:23:41;14.10;1.00
5930;DHT22;2990;48.746;9.236;2022-10-17T02:26:19;14.10;1.00
5930;DHT22;2990;48.746;9.236;2022-10-17T02:29:05;14.10;1.00
5930;DHT22;2990;48.746;9.236;2022-10-17T02:31:46;14.10;1.00
5930;DHT22;2990;48.746;9.236;2022-10-17T02:34:45;14.10;1.00
5930;DHT22;2990;48.746;9.236;2022-10-17T02:37:14;14.10;1.00
5930;DHT22;2990;48.746;9.236;2022-10-17T02:39:41;14.10;1.00
5930;DHT22;2990;48.746;9.236;2022-10-17T02:42:11;14.10;1.00
5930;DHT22;2990;48.746;9.236;2022-10-17T02:44:39;14.10;1.00
5930;DHT22;2990;48.746;9.236;2022-10-17T02:47:22;14.10;1.00
5930;DHT22;2990;48.746;9.236;2022-10-17T02:49:51;14.10;1.00
5930;DHT22;2990;48.746;9.236;2022-10-17T02:55:05;14.30;1.00
5930;DHT22;2990;48.746;9.236;2022-10-17T02:57:37;14.40;1.00
5930;DHT22;2990;48.746;9.236;2022-10-17T03:00:06;14.40;1.00
5930;DHT22;2990;48.746;9.236;2022-10-17T03:02:59;14.40;1.00
5930;DHT22;2990;48.746;9.236;2022-10-17T03:05:26;14.40;1.00
5930;DHT22;2990;48.746;9.236;2022-10-17T03:07:53;14.30;1.00
5930;DHT22;2990;48.746;9.236;2022-10-17T03:10:19;14.40;1.00
5930;DHT22;2990;48.746;9.236;2022-10-17T03:12:45;14.30;1.00
5930;DHT22;2990;48.746;9.236;2022-10-17T03:15:11;14.20;1.00
5930;DHT22;2990;48.746;9.236;2022-10-17T03:17:37;14.20;1.00
5930;DHT22;2990;48.746;9.236;2022-10-17T03:20:04;14.20;1.00
5930;DHT22;2990;48.746;9.236;2022-10-17T03:22:30;14.20;1.00
5930;DHT22;2990;48.746;9.236;2022-10-17T03:24:56;14.10;1.00
5930;DHT22;2990;48.746;9.236;2022-10-17T03:27:22;14.10;1.00
5930;DHT22;2990;48.746;9.236;2022-10-17T03:29:47;14.10;1.00
5930;DHT22;2990;48.746;9.236;2022-10-17T03:32:13;14.10;1.00
5930;DHT22;2990;48.746;9.236;2022-10-17T03:34:38;14.10;1.00
5930;DHT22;2990;48.746;9.236;2022-10-17T03:37:04;14.10;1.00
5930;DHT22;2990;48.746;9.236;2022-10-17T03:39:29;14.00;1.00
5930;DHT22;2990;48.746;9.236;2022-10-17T03:41:55;14.00;1.00
5930;DHT22;2990;48.746;9.236;2022-10-17T03:44:21;14.00;1.00
5930;DHT22;2990;48.746;9.236;2022-10-17T03:46:46;14.00;1.00
5930;DHT22;2990;48.746;9.236;2022-10-17T03:49:12;14.00;1.00
5930;DHT22;2990;48.746;9.236;2022-10-17T03:51:37;14.00;1.00
5930;DHT22;2990;48.746;9.236;2022-10-17T03:54:03;14.00;1.00
5930;DHT22;2990;48.746;9.236;2022-10-17T03:56:29;14.00;1.00
5930;DHT22;2990;48.746;9.236;2022-10-17T03:58:54;14.10;1.00
5930;DHT22;2990;48.746;9.236;2022-10-17T04:01:20;14.10;1.00
5930;DHT22;2990;48.746;9.236;2022-10-17T04:03:53;14.10;1.00
5930;DHT22;2990;48.746;9.236;2022-10-17T04:06:19;14.20;1.00
5930;DHT22;2990;48.746;9.236;2022-10-17T04:08:45;14.10;1.00
5930;DHT22;2990;48.746;9.236;2022-10-17T04:11:15;14.10;1.00
5930;DHT22;2990;48.746;9.236;2022-10-17T04:13:41;14.10;1.00
5930;DHT22;2990;48.746;9.236;2022-10-17T04:16:11;14.00;1.00
5930;DHT22;2990;48.746;9.236;2022-10-17T04:18:37;14.00;1.00
5930;DHT22;2990;48.746;9.236;2022-10-17T04:21:04;14.20;1.00
5930;DHT22;2990;48.746;9.236;2022-10-17T04:23:30;14.00;1.00
5930;DHT22;2990;48.746;9.236;2022-10-17T04:25:56;14.00;1.00
5930;DHT22;2990;48.746;9.236;2022-10-17T04:28:23;14.00;1.00
5930;DHT22;2990;48.746;9.236;2022-10-17T04:30:58;14.00;1.00
5930;DHT22;2990;48.746;9.236;2022-10-17T04:33:27;14.00;1.00
5930;DHT22;2990;48.746;9.236;2022-10-17T04:36:13;14.00;1.00
5930;DHT22;2990;48.746;9.236;2022-10-17T04:38:39;14.00;1.00
5930;DHT22;2990;48.746;9.236;2022-10-17T04:41:09;14.00;1.00
5930;DHT22;2990;48.746;9.236;2022-10-17T04:43:36;14.00;1.00
5930;DHT22;2990;48.746;9.236;2022-10-17T04:46:04;13.90;1.00
5930;DHT22;2990;48.746;9.236;2022-10-17T04:48:30;13.80;1.00
5930;DHT22;2990;48.746;9.236;2022-10-17T04:51:00;13.90;1.00
5930;DHT22;2990;48.746;9.236;2022-10-17T04:53:27;13.80;1.00
5930;DHT22;2990;48.746;9.236;2022-10-17T04:55:54;13.70;1.00
5930;DHT22;2990;48.746;9.236;2022-10-17T04:58:21;13.70;1.00
5930;DHT22;2990;48.746;9.236;2022-10-17T05:00:46;13.70;1.00
5930;DHT22;2990;48.746;9.236;2022-10-17T05:03:12;13.70;1.00
5930;DHT22;2990;48.746;9.236;2022-10-17T05:05:41;13.70;1.00
5930;DHT22;2990;48.746;9.236;2022-10-17T05:08:08;13.70;1.00
5930;DHT22;2990;48.746;9.236;2022-10-17T05:10:42;13.70;1.00
5930;DHT22;2990;48.746;9.236;2022-10-17T05:13:08;13.70;1.00
5930;DHT22;2990;48.746;9.236;2022-10-17T05:15:35;13.70;1.00
5930;DHT22;2990;48.746;9.236;2022-10-17T05:18:01;13.60;1.00
5930;DHT22;2990;48.746;9.236;2022-10-17T05:20:27;13.60;1.00
5930;DHT22;2990;48.746;9.236;2022-10-17T05:22:53;13.60;1.00
5930;DHT22;2990;48.746;9.236;2022-10-17T05:25:19;13.60;1.00
5930;DHT22;2990;48.746;9.236;2022-10-17T05:27:44;13.60;1.00
5930;DHT22;2990;48.746;9.236;2022-10-17T05:30:10;13.60;1.00
5930;DHT22;2990;48.746;9.236;2022-10-17T05:32:37;13.60;1.00
5930;DHT22;2990;48.746;9.236;2022-10-17T05:35:03;13.60;1.00
5930;DHT22;2990;48.746;9.236;2022-10-17T05:37:30;13.60;1.00
5930;DHT22;2990;48.746;9.236;2022-10-17T05:39:56;13.60;1.00
5930;DHT22;2990;48.746;9.236;2022-10-17T05:42:21;13.60;1.00
5930;DHT22;2990;48.746;9.236;2022-10-17T05:44:47;13.60;1.00
5930;DHT22;2990;48.746;9.236;2022-10-17T05:47:12;13.60;1.00
5930;DHT22;2990;48.746;9.236;2022-10-17T05:49:38;13.60;1.00
5930;DHT22;2990;48.746;9.236;2022-10-17T05:52:04;13.60;1.00
5930;DHT22;2990;48.746;9.236;2022-10-17T05:54:30;13.70;1.00
5930;DHT22;2990;48.746;9.236;2022-10-17T05:56:56;13.60;1.00
5930;DHT22;2990;48.746;9.236;2022-10-17T05:59:24;13.70;1.00
5930;DHT22;2990;48.746;9.236;2022-10-17T06:01:50;13.60;1.00
5930;DHT22;2990;48.746;9.236;2022-10-17T06:04:15;13.60;1.00
5930;DHT22;2990;48.746;9.236;2022-10-17T06:06:41;13.70;1.00
5930;DHT22;2990;48.746;9.236;2022-10-17T06:09:07;13.60;1.00
5930;DHT22;2990;48.746;9.236;2022-10-17T06:11:34;13.70;1.00
5930;DHT22;2990;48.746;9.236;2022-10-17T06:14:00;13.70;1.00
5930;DHT22;2990;48.746;9.236;2022-10-17T06:16:25;13.70;1.00
5930;DHT22;2990;48.746;9.236;2022-10-17T06:18:51;13.70;1.00
5930;DHT22;2990;48.746;9.236;2022-10-17T06:21:21;13.70;1.00
5930;DHT22;2990;48.746;9.236;2022-10-17T06:23:47;13.70;1.00
5930;DHT22;2990;48.746;9.236;2022-10-17T06:26:13;13.60;1.00
5930;DHT22;2990;48.746;9.236;2022-10-17T06:28:38;13.60;1.00
5930;DHT22;2990;48.746;9.236;2022-10-17T06:31:06;13.40;1.00
5930;DHT22;2990;48.746;9.236;2022-10-17T06:33:33;13.40;1.00
5930;DHT22;2990;48.746;9.236;2022-10-17T06:35:58;13.40;1.00
5930;DHT22;2990;48.746;9.236;2022-10-17T06:38:24;13.30;1.00
5930;DHT22;2990;48.746;9.236;2022-10-17T06:40:50;13.40;1.00
5930;DHT22;2990;48.746;9.236;2022-10-17T06:43:15;13.30;1.00
5930;DHT22;2990;48.746;9.236;2022-10-17T06:45:41;13.60;1.00
5930;DHT22;2990;48.746;9.236;2022-10-17T06:48:07;13.30;1.00
5930;DHT22;2990;48.746;9.236;2022-10-17T06:50:33;13.10;1.00
5930;DHT22;2990;48.746;9.236;2022-10-17T06:52:59;13.40;1.00
5930;DHT22;2990;48.746;9.236;2022-10-17T06:55:25;13.40;1.00
5930;DHT22;2990;48.746;9.236;2022-10-17T06:57:53;13.30;1.00
5930;DHT22;2990;48.746;9.236;2022-10-17T07:00:19;13.40;1.00
5930;DHT22;2990;48.746;9.236;2022-10-17T07:02:45;13.30;1.00
5930;DHT22;2990;48.746;9.236;2022-10-17T07:05:10;13.30;1.00
5930;DHT22;2990;48.746;9.236;2022-10-17T07:07:36;13.30;1.00
5930;DHT22;2990;48.746;9.236;2022-10-17T07:10:02;13.30;1.00
5930;DHT22;2990;48.746;9.236;2022-10-17T07:12:33;13.30;1.00
5930;DHT22;2990;48.746;9.236;2022-10-17T07:14:59;13.40;1.00
5930;DHT22;2990;48.746;9.236;2022-10-17T07:17:24;13.50;1.00
5930;DHT22;2990;48.746;9.236;2022-10-17T07:19:50;13.50;1.00
5930;DHT22;2990;48.746;9.236;2022-10-17T07:22:16;13.60;1.00
5930;DHT22;2990;48.746;9.236;2022-10-17T07:24:41;13.60;1.00
5930;DHT22;2990;48.746;9.236;2022-10-17T07:27:07;13.60;1.00
5930;DHT22;2990;48.746;9.236;2022-10-17T07:29:32;13.70;1.00
5930;DHT22;2990;48.746;9.236;2022-10-17T07:31:58;13.80;1.00
5930;DHT22;2990;48.746;9.236;2022-10-17T07:34:26;13.90;1.00
5930;DHT22;2990;48.746;9.236;2022-10-17T07:36:55;14.20;1.00
5930;DHT22;2990;48.746;9.236;2022-10-17T07:39:20;14.20;1.00
5930;DHT22;2990;48.746;9.236;2022-10-17T07:41:48;14.40;1.00
5930;DHT22;2990;48.746;9.236;2022-10-17T07:44:13;14.50;1.00
5930;DHT22;2990;48.746;9.236;2022-10-17T07:46:39;14.70;99.90
5930;DHT22;2990;48.746;9.236;2022-10-17T07:49:05;14.80;99.90
5930;DHT22;2990;48.746;9.236;2022-10-17T07:51:30;15.00;45.60
5930;DHT22;2990;48.746;9.236;2022-10-17T07:53:56;15.10;1.00
5930;DHT22;2990;48.746;9.236;2022-10-17T07:56:21;15.30;1.00
5930;DHT22;2990;48.746;9.236;2022-10-17T07:58:49;15.40;1.00
5930;DHT22;2990;48.746;9.236;2022-10-17T08:01:15;15.60;99.90
5930;DHT22;2990;48.746;9.236;2022-10-17T08:03:43;15.80;99.90
5930;DHT22;2990;48.746;9.236;2022-10-17T08:06:09;15.90;99.90
5930;DHT22;2990;48.746;9.236;2022-10-17T08:08:34;16.10;1.00
5930;DHT22;2990;48.746;9.236;2022-10-17T08:11:03;16.40;1.00
5930;DHT22;2990;48.746;9.236;2022-10-17T08:13:29;16.30;99.90
5930;DHT22;2990;48.746;9.236;2022-10-17T08:15:59;16.60;1.00
5930;DHT22;2990;48.746;9.236;2022-10-17T08:18:24;16.80;99.90
5930;DHT22;2990;48.746;9.236;2022-10-17T08:20:50;16.90;1.00
5930;DHT22;2990;48.746;9.236;2022-10-17T08:23:15;17.00;13.00
5930;DHT22;2990;48.746;9.236;2022-10-17T08:25:41;17.20;99.90
5930;DHT22;2990;48.746;9.236;2022-10-17T08:28:07;17.40;99.90
5930;DHT22;2990;48.746;9.236;2022-10-17T08:30:33;17.50;99.90
5930;DHT22;2990;48.746;9.236;2022-10-17T08:32:58;17.80;99.90
5930;DHT22;2990;48.746;9.236;2022-10-17T08:35:24;17.90;1.00
5930;DHT22;2990;48.746;9.236;2022-10-17T08:37:49;18.10;1.00
5930;DHT22;2990;48.746;9.236;2022-10-17T08:40:27;18.10;99.90
5930;DHT22;2990;48.746;9.236;2022-10-17T08:45:57;18.40;99.90
5930;DHT22;2990;48.746;9.236;2022-10-17T08:48:26;18.50;1.00
5930;DHT22;2990;48.746;9.236;2022-10-17T08:50:53;18.70;99.90
5930;DHT22;2990;48.746;9.236;2022-10-17T08:53:30;18.90;24.10
5930;DHT22;2990;48.746;9.236;2022-10-17T08:56:02;19.00;1.00
5930;DHT22;2990;48.746;9.236;2022-10-17T08:58:32;19.20;1.00
5930;DHT22;2990;48.746;9.236;2022-10-17T09:01:32;19.40;99.90
5930;DHT22;2990;48.746;9.236;2022-10-17T09:06:39;19.80;1.00
5930;DHT22;2990;48.746;9.236;2022-10-17T09:09:30;20.00;1.00
5930;DHT22;2990;48.746;9.236;2022-10-17T09:15:22;20.10;99.90
5930;DHT22;2990;48.746;9.236;2022-10-17T09:17:58;20.10;1.00
5930;DHT22;2990;48.746;9.236;2022-10-17T09:23:14;20.50;1.00
5930;DHT22;2990;48.746;9.236;2022-10-17T09:25:43;20.40;1.00
5930;DHT22;2990;48.746;9.236;2022-10-17T09:28:15;20.50;1.00
5930;DHT22;2990;48.746;9.236;2022-10-17T09:33:27;20.80;1.00
5930;DHT22;2990;48.746;9.236;2022-10-17T09:35:55;20.90;1.00
5930;DHT22;2990;48.746;9.236;2022-10-17T09:38:24;21.00;1.00
5930;DHT22;2990;48.746;9.236;2022-10-17T09:40:56;21.10;1.00
5930;DHT22;2990;48.746;9.236;2022-10-17T09:43:23;21.20;1.00
5930;DHT22;2990;48.746;9.236;2022-10-17T09:46:09;21.20;1.00
5930;DHT22;2990;48.746;9.236;2022-10-17T09:48:45;21.20;1.00
5930;DHT22;2990;48.746;9.236;2022-10-17T09:51:13;21.10;1.00
5930;DHT22;2990;48.746;9.236;2022-10-17T09:53:41;21.20;1.00
5930;DHT22;2990;48.746;9.236;2022-10-17T09:56:15;21.10;1.00
5930;DHT22;2990;48.746;9.236;2022-10-17T09:58:52;21.00;1.00
5930;DHT22;2990;48.746;9.236;2022-10-17T10:01:21;21.10;1.00
5930;DHT22;2990;48.746;9.236;2022-10-17T10:06:31;21.10;1.00
5930;DHT22;2990;48.746;9.236;2022-10-17T10:08:57;21.20;1.00
5930;DHT22;2990;48.746;9.236;2022-10-17T10:11:48;21.10;1.00
5930;DHT22;2990;48.746;9.236;2022-10-17T10:14:30;21.20;1.00
5930;DHT22;2990;48.746;9.236;2022-10-17T10:17:00;21.10;1.00
5930;DHT22;2990;48.746;9.236;2022-10-17T10:22:00;21.30;1.00
5930;DHT22;2990;48.746;9.236;2022-10-17T10:24:26;21.40;1.00
5930;DHT22;2990;48.746;9.236;2022-10-17T10:26:54;21.60;1.00
5930;DHT22;2990;48.746;9.236;2022-10-17T10:29:37;21.60;1.00
5930;DHT22;2990;48.746;9.236;2022-10-17T10:32:31;21.60;1.00
5930;DHT22;2990;48.746;9.236;2022-10-17T10:35:06;21.60;1.00
5930;DHT22;2990;48.746;9.236;2022-10-17T10:37:38;21.70;1.00
5930;DHT22;2990;48.746;9.236;2022-10-17T10:40:18;21.60;1.00
5930;DHT22;2990;48.746;9.236;2022-10-17T10:42:50;21.70;1.00
5930;DHT22;2990;48.746;9.236;2022-10-17T10:45:18;21.80;1.00
5930;DHT22;2990;48.746;9.236;2022-10-17T10:48:02;21.60;1.00
5930;DHT22;2990;48.746;9.236;2022-10-17T10:50:51;21.80;1.00
5930;DHT22;2990;48.746;9.236;2022-10-17T11:01:04;22.10;1.00
5930;DHT22;2990;48.746;9.236;2022-10-17T11:03:35;22.20;1.00
5930;DHT22;2990;48.746;9.236;2022-10-17T11:06:05;22.30;1.00
5930;DHT22;2990;48.746;9.236;2022-10-17T11:08:37;22.50;1.00
5930;DHT22;2990;48.746;9.236;2022-10-17T11:14:02;22.60;99.90
5930;DHT22;2990;48.746;9.236;2022-10-17T11:16:37;22.70;1.00
5930;DHT22;2990;48.746;9.236;2022-10-17T11:19:12;22.80;1.00
5930;DHT22;2990;48.746;9.236;2022-10-17T11:22:15;22.90;99.90
5930;DHT22;2990;48.746;9.236;2022-10-17T11:27:36;23.40;99.90
5930;DHT22;2990;48.746;9.236;2022-10-17T11:30:03;23.60;99.90
5930;DHT22;2990;48.746;9.236;2022-10-17T11:32:34;23.70;99.90
5930;DHT22;2990;48.746;9.236;2022-10-17T11:35:14;23.90;99.90
5930;DHT22;2990;48.746;9.236;2022-10-17T11:37:45;24.00;99.90
5930;DHT22;2990;48.746;9.236;2022-10-17T11:42:53;24.40;75.90
5930;DHT22;2990;48.746;9.236;2022-10-17T11:45:22;24.60;42.10
5930;DHT22;2990;48.746;9.236;2022-10-17T11:48:16;24.70;9.50
5930;DHT22;2990;48.746;9.236;2022-10-17T11:50:48;24.70;1.00
5930;DHT22;2990;48.746;9.236;2022-10-17T11:53:16;25.00;1.00
5930;DHT22;2990;48.746;9.236;2022-10-17T11:55:43;25.00;1.00
5930;DHT22;2990;48.746;9.236;2022-10-17T12:12:02;25.30;1.00
5930;DHT22;2990;48.746;9.236;2022-10-17T12:14:42;25.30;1.00
5930;DHT22;2990;48.746;9.236;2022-10-17T12:25:22;25.50;1.00
5930;DHT22;2990;48.746;9.236;2022-10-17T12:30:27;25.60;1.00
5930;DHT22;2990;48.746;9.236;2022-10-17T12:35:38;25.60;1.00
5930;DHT22;2990;48.746;9.236;2022-10-17T12:45:58;25.70;1.00
5930;DHT22;2990;48.746;9.236;2022-10-17T12:51:19;25.80;1.00
5930;DHT22;2990;48.746;9.236;2022-10-17T12:56:16;25.70;1.00
5930;DHT22;2990;48.746;9.236;2022-10-17T12:58:48;25.80;1.00
5930;DHT22;2990;48.746;9.236;2022-10-17T13:01:24;25.90;1.00
5930;DHT22;2990;48.746;9.236;2022-10-17T13:03:52;25.80;1.00
5930;DHT22;2990;48.746;9.236;2022-10-17T13:06:25;25.70;1.00
5930;DHT22;2990;48.746;9.236;2022-10-17T13:08:59;25.80;1.00
5930;DHT22;2990;48.746;9.236;2022-10-17T13:11:28;25.70;1.00
5930;DHT22;2990;48.746;9.236;2022-10-17T13:13:57;25.70;1.00
5930;DHT22;2990;48.746;9.236;2022-10-17T13:16:27;25.80;1.00
5930;DHT22;2990;48.746;9.236;2022-10-17T13:18:53;25.80;1.00
5930;DHT22;2990;48.746;9.236;2022-10-17T13:21:19;25.60;1.00
5930;DHT22;2990;48.746;9.236;2022-10-17T13:23:45;25.60;1.00
5930;DHT22;2990;48.746;9.236;2022-10-17T13:26:19;25.60;1.00
5930;DHT22;2990;48.746;9.236;2022-10-17T13:28:59;25.60;1.00
5930;DHT22;2990;48.746;9.236;2022-10-17T13:31:36;25.50;1.00
5930;DHT22;2990;48.746;9.236;2022-10-17T13:34:05;25.70;1.00
5930;DHT22;2990;48.746;9.236;2022-10-17T13:36:32;25.80;1.00
5930;DHT22;2990;48.746;9.236;2022-10-17T13:39:00;25.80;1.00
5930;DHT22;2990;48.746;9.236;2022-10-17T13:41:31;25.70;1.00
5930;DHT22;2990;48.746;9.236;2022-10-17T13:44:00;25.50;1.00
5930;DHT22;2990;48.746;9.236;2022-10-17T13:46:29;25.20;1.00
5930;DHT22;2990;48.746;9.236;2022-10-17T13:48:57;25.10;1.00
5930;DHT22;2990;48.746;9.236;2022-10-17T13:51:25;24.70;1.00
5930;DHT22;2990;48.746;9.236;2022-10-17T13:53:52;24.50;1.00
5930;DHT22;2990;48.746;9.236;2022-10-17T13:56:23;24.40;1.00
5930;DHT22;2990;48.746;9.236;2022-10-17T13:58:53;24.20;1.00
5930;DHT22;2990;48.746;9.236;2022-10-17T14:01:23;24.20;1.00
5930;DHT22;2990;48.746;9.236;2022-10-17T14:03:50;24.10;1.00
5930;DHT22;2990;48.746;9.236;2022-10-17T14:06:21;24.20;1.00
5930;DHT22;2990;48.746;9.236;2022-10-17T14:11:37;24.10;1.00
5930;DHT22;2990;48.746;9.236;2022-10-17T14:14:06;24.20;1.00
5930;DHT22;2990;48.746;9.236;2022-10-17T14:16:41;24.20;1.00
5930;DHT22;2990;48.746;9.236;2022-10-17T14:22:13;24.10;1.00
5930;DHT22;2990;48.746;9.236;2022-10-17T14:24:39;24.00;1.00
5930;DHT22;2990;48.746;9.236;2022-10-17T14:27:29;24.00;1.00
5930;DHT22;2990;48.746;9.236;2022-10-17T14:29:58;23.90;1.00
5930;DHT22;2990;48.746;9.236;2022-10-17T14:32:29;23.70;1.00
5930;DHT22;2990;48.746;9.236;2022-10-17T14:34:57;23.80;1.00
5930;DHT22;2990;48.746;9.236;2022-10-17T14:37:49;23.70;1.00
5930;DHT22;2990;48.746;9.236;2022-10-17T14:40:21;23.70;1.00
5930;DHT22;2990;48.746;9.236;2022-10-17T14:42:51;23.60;1.00
5930;DHT22;2990;48.746;9.236;2022-10-17T14:45:29;23.60;1.00
5930;DHT22;2990;48.746;9.236;2022-10-17T14:48:01;23.50;1.00
5930;DHT22;2990;48.746;9.236;2022-10-17T14:50:29;23.50;1.00
5930;DHT22;2990;48.746;9.236;2022-10-17T14:53:05;23.40;1.00
5930;DHT22;2990;48.746;9.236;2022-10-17T14:55:33;23.40;1.00
5930;DHT22;2990;48.746;9.236;2022-10-17T14:57:59;23.30;1.00
5930;DHT22;2990;48.746;9.236;2022-10-17T15:00:25;23.30;1.00
5930;DHT22;2990;48.746;9.236;2022-10-17T15:02:52;23.20;1.00
5930;DHT22;2990;48.746;9.236;2022-10-17T15:05:18;23.10;1.00
5930;DHT22;2990;48.746;9.236;2022-10-17T15:07:45;23.10;1.00
5930;DHT22;2990;48.746;9.236;2022-10-17T15:10:38;23.10;1.00
5930;DHT22;2990;48.746;9.236;2022-10-17T15:13:08;23.00;1.00
5930;DHT22;2990;48.746;9.236;2022-10-17T15:15:37;23.00;1.00
5930;DHT22;2990;48.746;9.236;2022-10-17T15:18:10;22.90;1.00
5930;DHT22;2990;48.746;9.236;2022-10-17T15:20:36;22.90;1.00
5930;DHT22;2990;48.746;9.236;2022-10-17T15:23:02;22.90;1.00
5930;DHT22;2990;48.746;9.236;2022-10-17T15:25:29;22.80;1.00
5930;DHT22;2990;48.746;9.236;2022-10-17T15:27:56;22.80;1.00
5930;DHT22;2990;48.746;9.236;2022-10-17T15:30:24;22.70;1.00
5930;DHT22;2990;48.746;9.236;2022-10-17T15:32:50;22.60;1.00
5930;DHT22;2990;48.746;9.236;2022-10-17T15:35:16;22.40;1.00
5930;DHT22;2990;48.746;9.236;2022-10-17T15:37:43;22.40;1.00
5930;DHT22;2990;48.746;9.236;2022-10-17T15:42:43;22.30;1.00
5930;DHT22;2990;48.746;9.236;2022-10-17T15:45:11;21.90;1.00
5930;DHT22;2990;48.746;9.236;2022-10-17T15:47:37;21.90;1.00
5930;DHT22;2990;48.746;9.236;2022-10-17T15:50:04;21.90;1.00
5930;DHT22;2990;48.746;9.236;2022-10-17T15:52:30;21.80;1.00
5930;DHT22;2990;48.746;9.236;2022-10-17T15:54:56;21.80;1.00
5930;DHT22;2990;48.746;9.236;2022-10-17T15:57:25;21.70;1.00
5930;DHT22;2990;48.746;9.236;2022-10-17T15:59:52;21.80;1.00
5930;DHT22;2990;48.746;9.236;2022-10-17T16:02:20;21.60;1.00
5930;DHT22;2990;48.746;9.236;2022-10-17T16:04:46;21.50;1.00
5930;DHT22;2990;48.746;9.236;2022-10-17T16:07:12;21.30;1.00
5930;DHT22;2990;48.746;9.236;2022-10-17T16:09:38;21.30;1.00
5930;DHT22;2990;48.746;9.236;2022-10-17T16:12:05;21.40;1.00
5930;DHT22;2990;48.746;9.236;2022-10-17T16:14:32;21.30;1.00
5930;DHT22;2990;48.746;9.236;2022-10-17T16:16:58;21.20;2.80
5930;DHT22;2990;48.746;9.236;2022-10-17T16:19:25;21.10;16.60
5930;DHT22;2990;48.746;9.236;2022-10-17T16:21:54;21.00;24.00
5930;DHT22;2990;48.746;9.236;2022-10-17T16:24:20;20.90;34.00
5930;DHT22;2990;48.746;9.236;2022-10-17T16:26:46;20.80;74.40
5930;DHT22;2990;48.746;9.236;2022-10-17T16:29:11;20.70;85.30
5930;DHT22;2990;48.746;9.236;2022-10-17T16:31:41;20.60;95.90
5930;DHT22;2990;48.746;9.236;2022-10-17T16:34:06;20.50;97.80
5930;DHT22;2990;48.746;9.236;2022-10-17T16:36:33;20.60;92.90
5930;DHT22;2990;48.746;9.236;2022-10-17T16:38:59;20.50;94.70
5930;DHT22;2990;48.746;9.236;2022-10-17T16:41:25;20.10;99.90
5930;DHT22;2990;48.746;9.236;2022-10-17T16:43:53;20.20;99.90
5930;DHT22;2990;48.746;9.236;2022-10-17T16:46:19;20.00;99.90
5930;DHT22;2990;48.746;9.236;2022-10-17T16:48:46;20.10;99.90
5930;DHT22;2990;48.746;9.236;2022-10-17T16:51:12;19.90;99.90
5930;DHT22;2990;48.746;9.236;2022-10-17T16:53:39;20.00;99.90
5930;DHT22;2990;48.746;9.236;2022-10-17T16:56:12;20.00;99.90
5930;DHT22;2990;48.746;9.236;2022-10-17T16:58:39;19.90;99.90
5930;DHT22;2990;48.746;9.236;2022-10-17T17:01:10;19.80;99.90
5930;DHT22;2990;48.746;9.236;2022-10-17T17:03:38;19.80;99.90
5930;DHT22;2990;48.746;9.236;2022-10-17T17:06:05;19.90;99.90
5930;DHT22;2990;48.746;9.236;2022-10-17T17:08:32;19.70;99.90
5930;DHT22;2990;48.746;9.236;2022-10-17T17:10:57;19.80;99.90
5930;DHT22;2990;48.746;9.236;2022-10-17T17:13:24;19.70;99.90
5930;DHT22;2990;48.746;9.236;2022-10-17T17:15:50;19.70;99.90
5930;DHT22;2990;48.746;9.236;2022-10-17T17:18:19;19.60;99.90
5930;DHT22;2990;48.746;9.236;2022-10-17T17:20:44;19.60;99.90
5930;DHT22;2990;48.746;9.236;2022-10-17T17:23:10;19.50;99.90
5930;DHT22;2990;48.746;9.236;2022-10-17T17:25:36;19.50;99.90
5930;DHT22;2990;48.746;9.236;2022-10-17T17:28:06;19.50;99.90
5930;DHT22;2990;48.746;9.236;2022-10-17T17:30:33;19.50;99.90
5930;DHT22;2990;48.746;9.236;2022-10-17T17:32:59;19.60;99.90
5930;DHT22;2990;48.746;9.236;2022-10-17T17:35:25;19.50;99.90
5930;DHT22;2990;48.746;9.236;2022-10-17T17:37:51;19.50;1.00
5930;DHT22;2990;48.746;9.236;2022-10-17T17:40:16;19.50;99.90
5930;DHT22;2990;48.746;9.236;2022-10-17T17:42:42;19.50;99.90
5930;DHT22;2990;48.746;9.236;2022-10-17T17:45:08;19.40;1.00
5930;DHT22;2990;48.746;9.236;2022-10-17T17:47:33;19.40;1.00
5930;DHT22;2990;48.746;9.236;2022-10-17T17:49:59;19.40;1.00
5930;DHT22;2990;48.746;9.236;2022-10-17T17:52:25;19.50;1.00
5930;DHT22;2990;48.746;9.236;2022-10-17T17:54:50;19.40;1.00
5930;DHT22;2990;48.746;9.236;2022-10-17T17:57:16;19.40;1.00
5930;DHT22;2990;48.746;9.236;2022-10-17T17:59:41;19.40;1.00
5930;DHT22;2990;48.746;9.236;2022-10-17T18:02:09;19.40;1.00
5930;DHT22;2990;48.746;9.236;2022-10-17T18:04:34;19.30;1.00
5930;DHT22;2990;48.746;9.236;2022-10-17T18:07:00;19.30;1.00
5930;DHT22;2990;48.746;9.236;2022-10-17T18:09:25;19.20;1.00
5930;DHT22;2990;48.746;9.236;2022-10-17T18:11:51;19.20;1.00
5930;DHT22;2990;48.746;9.236;2022-10-17T18:14:16;19.20;1.00
5930;DHT22;2990;48.746;9.236;2022-10-17T18:16:47;19.20;1.00
5930;DHT22;2990;48.746;9.236;2022-10-17T18:19:13;19.20;1.00